sensor_id;sensor_type;location;lat;lon;timestamp;pressure;altitude;pressure_sealevel;temperature;humidity
31121;BME280;17770;45.966;13.632;2023-10-13T00:00:29;101024.56;;;25.64;52.29
31121;BME280;17770;45.966;13.632;2023-10-13T00:02:58;101022.03;;;25.62;52.66
31121;BME280;17770;45.966;13.632;2023-10-13T00:05:26;101023.84;;;25.62;52.81
31121;BME280;17770;45.966;13.632;2023-10-13T00:07:53;101023.84;;;25.62;52.47
31121;BME280;17770;45.966;13.632;2023-10-13T00:10:19;101023.97;;;25.60;52.83
31121;BME280;17770;45.966;13.632;2023-10-13T00:12:46;101024.81;;;25.61;52.42
31121;BME280;17770;45.966;13.632;2023-10-13T00:15:16;101017.00;;;25.59;52.46
31121;BME280;17770;45.966;13.632;2023-10-13T00:17:43;101023.13;;;25.60;52.74
31121;BME280;17770;45.966;13.632;2023-10-13T00:20:09;101022.16;;;25.61;52.46
31121;BME280;17770;45.966;13.632;2023-10-13T00:22:42;101026.59;;;25.60;52.64
31121;BME280;17770;45.966;13.632;2023-10-13T00:25:08;101011.72;;;25.59;52.73
31121;BME280;17770;45.966;13.632;2023-10-13T00:27:40;101022.28;;;25.59;52.91
31121;BME280;17770;45.966;13.632;2023-10-13T00:30:07;101018.81;;;25.59;52.34
31121;BME280;17770;45.966;13.632;2023-10-13T00:32:58;101017.13;;;25.58;52.53
31121;BME280;17770;45.966;13.632;2023-10-13T00:35:25;101022.41;;;25.58;52.84
31121;BME280;17770;45.966;13.632;2023-10-13T00:37:55;101021.56;;;25.57;52.84
31121;BME280;17770;45.966;13.632;2023-10-13T00:40:23;101023.38;;;25.57;52.50
31121;BME280;17770;45.966;13.632;2023-10-13T00:42:58;101013.66;;;25.57;52.41
31121;BME280;17770;45.966;13.632;2023-10-13T00:45:43;101015.44;;;25.57;52.84
31121;BME280;17770;45.966;13.632;2023-10-13T00:48:10;101018.19;;;25.55;52.40
31121;BME280;17770;45.966;13.632;2023-10-13T00:50:41;101012.91;;;25.55;52.21
31121;BME280;17770;45.966;13.632;2023-10-13T00:53:07;101017.50;;;25.53;52.88
31121;BME280;17770;45.966;13.632;2023-10-13T00:55:34;101020.03;;;25.55;52.40
31121;BME280;17770;45.966;13.632;2023-10-13T00:58:00;101007.88;;;25.52;52.79
31121;BME280;17770;45.966;13.632;2023-10-13T01:00:29;101011.25;;;25.54;52.38
31121;BME280;17770;45.966;13.632;2023-10-13T01:02:55;101014.03;;;25.53;52.30
31121;BME280;17770;45.966;13.632;2023-10-13T01:05:25;101012.22;;;25.53;52.34
31121;BME280;17770;45.966;13.632;2023-10-13T01:07:51;101017.63;;;25.52;52.72
31121;BME280;17770;45.966;13.632;2023-10-13T01:10:20;101021.09;;;25.52;52.71
31121;BME280;17770;45.966;13.632;2023-10-13T01:12:51;101010.53;;;25.52;52.44
31121;BME280;17770;45.966;13.632;2023-10-13T01:15:18;101015.94;;;25.51;52.75
31121;BME280;17770;45.966;13.632;2023-10-13T01:17:46;101007.88;;;25.52;52.75
31121;BME280;17770;45.966;13.632;2023-10-13T01:20:13;101010.78;;;25.49;52.77
31121;BME280;17770;45.966;13.632;2023-10-13T01:22:59;101012.31;;;25.52;52.79
31121;BME280;17770;45.966;13.632;2023-10-13T01:25:27;101004.53;;;25.50;52.67
31121;BME280;17770;45.966;13.632;2023-10-13T01:27:53;101008.03;;;25.51;52.85
31121;BME280;17770;45.966;13.632;2023-10-13T01:30:19;101010.66;;;25.51;52.38
31121;BME280;17770;45.966;13.632;2023-10-13T01:32:52;101015.22;;;25.49;52.62
31121;BME280;17770;45.966;13.632;2023-10-13T01:35:19;101012.59;;;25.49;52.50
31121;BME280;17770;45.966;13.632;2023-10-13T01:37:52;101006.34;;;25.50;52.44
31121;BME280;17770;45.966;13.632;2023-10-13T01:40:18;101009.00;;;25.50;52.67
31121;BME280;17770;45.966;13.632;2023-10-13T01:42:46;101006.47;;;25.48;52.77
31121;BME280;17770;45.966;13.632;2023-10-13T01:45:12;101009.94;;;25.49;52.91
31121;BME280;17770;45.966;13.632;2023-10-13T01:47:39;101007.44;;;25.47;52.90
31121;BME280;17770;45.966;13.632;2023-10-13T01:50:06;101017.03;;;25.48;52.93
31121;BME280;17770;45.966;13.632;2023-10-13T01:52:46;101012.59;;;25.49;52.71
31121;BME280;17770;45.966;13.632;2023-10-13T01:55:13;101013.44;;;25.49;52.88
31121;BME280;17770;45.966;13.632;2023-10-13T01:57:40;101014.28;;;25.50;52.52
31121;BME280;17770;45.966;13.632;2023-10-13T02:00:08;101014.28;;;25.50;52.94
31121;BME280;17770;45.966;13.632;2023-10-13T02:02:47;101007.16;;;25.50;52.60
31121;BME280;17770;45.966;13.632;2023-10-13T02:05:16;101007.28;;;25.49;52.78
31121;BME280;17770;45.966;13.632;2023-10-13T02:07:42;101002.00;;;25.49;53.08
31121;BME280;17770;45.966;13.632;2023-10-13T02:10:11;101001.06;;;25.50;52.92
31121;BME280;17770;45.966;13.632;2023-10-13T02:12:38;101002.88;;;25.49;52.79
31121;BME280;17770;45.966;13.632;2023-10-13T02:15:11;100991.56;;;25.47;52.72
31121;BME280;17770;45.966;13.632;2023-10-13T02:17:52;100994.22;;;25.47;53.15
31121;BME280;17770;45.966;13.632;2023-10-13T02:20:20;100995.19;;;25.46;53.08
31121;BME280;17770;45.966;13.632;2023-10-13T02:22:52;100993.38;;;25.47;52.70
31121;BME280;17770;45.966;13.632;2023-10-13T02:25:19;100988.94;;;25.47;52.78
31121;BME280;17770;45.966;13.632;2023-10-13T02:28:01;100991.69;;;25.46;52.77
31121;BME280;17770;45.966;13.632;2023-10-13T02:30:27;100986.41;;;25.46;52.93
31121;BME280;17770;45.966;13.632;2023-10-13T02:32:53;100990.84;;;25.45;53.00
31121;BME280;17770;45.966;13.632;2023-10-13T02:35:21;100987.38;;;25.45;52.67
31121;BME280;17770;45.966;13.632;2023-10-13T02:37:56;100985.69;;;25.44;52.75
31121;BME280;17770;45.966;13.632;2023-10-13T02:40:24;100981.25;;;25.44;53.06
31121;BME280;17770;45.966;13.632;2023-10-13T02:42:50;100983.91;;;25.44;53.01
31121;BME280;17770;45.966;13.632;2023-10-13T02:45:16;100976.94;;;25.43;52.75
31121;BME280;17770;45.966;13.632;2023-10-13T02:47:47;100978.63;;;25.44;53.06
31121;BME280;17770;45.966;13.632;2023-10-13T02:50:33;100987.38;;;25.45;52.65
31121;BME280;17770;45.966;13.632;2023-10-13T02:52:59;100979.59;;;25.43;52.90
31121;BME280;17770;45.966;13.632;2023-10-13T02:55:25;100977.78;;;25.44;52.68
31121;BME280;17770;45.966;13.632;2023-10-13T02:57:51;100983.06;;;25.44;53.00
31121;BME280;17770;45.966;13.632;2023-10-13T03:00:21;100988.34;;;25.44;52.72
31121;BME280;17770;45.966;13.632;2023-10-13T03:02:49;100984.75;;;25.45;52.75
31121;BME280;17770;45.966;13.632;2023-10-13T03:05:23;100982.94;;;25.45;52.72
31121;BME280;17770;45.966;13.632;2023-10-13T03:07:49;100979.47;;;25.45;52.98
31121;BME280;17770;45.966;13.632;2023-10-13T03:10:16;100983.91;;;25.44;52.91
31121;BME280;17770;45.966;13.632;2023-10-13T03:12:44;100982.22;;;25.43;53.08
31121;BME280;17770;45.966;13.632;2023-10-13T03:15:14;100986.53;;;25.44;53.20
31121;BME280;17770;45.966;13.632;2023-10-13T03:17:42;100988.34;;;25.44;52.95
31121;BME280;17770;45.966;13.632;2023-10-13T03:20:10;100991.09;;;25.42;53.24
31121;BME280;17770;45.966;13.632;2023-10-13T03:22:39;100991.09;;;25.42;52.84
31121;BME280;17770;45.966;13.632;2023-10-13T03:25:07;100990.28;;;25.42;53.32
31121;BME280;17770;45.966;13.632;2023-10-13T03:27:34;100991.81;;;25.44;53.63
31121;BME280;17770;45.966;13.632;2023-10-13T03:30:16;100992.81;;;25.43;53.23
31121;BME280;17770;45.966;13.632;2023-10-13T03:32:42;100987.75;;;25.40;53.26
31121;BME280;17770;45.966;13.632;2023-10-13T03:35:11;100985.00;;;25.42;53.31
31121;BME280;17770;45.966;13.632;2023-10-13T03:37:39;100983.19;;;25.42;52.88
31121;BME280;17770;45.966;13.632;2023-10-13T03:40:09;100985.81;;;25.42;53.47
31121;BME280;17770;45.966;13.632;2023-10-13T03:42:45;100985.00;;;25.42;53.20
31121;BME280;17770;45.966;13.632;2023-10-13T03:45:26;100988.59;;;25.41;53.30
31121;BME280;17770;45.966;13.632;2023-10-13T03:47:52;100997.38;;;25.41;52.99
31121;BME280;17770;45.966;13.632;2023-10-13T03:50:19;100993.88;;;25.41;53.00
31121;BME280;17770;45.966;13.632;2023-10-13T03:52:58;100986.81;;;25.41;53.26
31121;BME280;17770;45.966;13.632;2023-10-13T03:55:24;100982.47;;;25.40;53.42
31121;BME280;17770;45.966;13.632;2023-10-13T03:57:52;100992.94;;;25.42;53.35
31121;BME280;17770;45.966;13.632;2023-10-13T04:00:20;100984.16;;;25.41;53.37
31121;BME280;17770;45.966;13.632;2023-10-13T04:02:56;100993.88;;;25.41;53.37
31121;BME280;17770;45.966;13.632;2023-10-13T04:05:41;100987.06;;;25.38;53.06
31121;BME280;17770;45.966;13.632;2023-10-13T04:08:12;100983.69;;;25.36;53.05
31121;BME280;17770;45.966;13.632;2023-10-13T04:10:53;100982.72;;;25.37;52.94
31121;BME280;17770;45.966;13.632;2023-10-13T04:13:20;100979.25;;;25.37;52.96
31121;BME280;17770;45.966;13.632;2023-10-13T04:16:04;100979.34;;;25.35;53.10
31121;BME280;17770;45.966;13.632;2023-10-13T04:18:50;100975.75;;;25.36;53.15
31121;BME280;17770;45.966;13.632;2023-10-13T04:21:25;100974.06;;;25.35;53.40
31121;BME280;17770;45.966;13.632;2023-10-13T04:24:07;100972.38;;;25.34;53.48
31121;BME280;17770;45.966;13.632;2023-10-13T04:26:48;100982.09;;;25.34;53.28
31121;BME280;17770;45.966;13.632;2023-10-13T04:29:33;100982.09;;;25.34;52.84
31121;BME280;17770;45.966;13.632;2023-10-13T04:32:14;100973.34;;;25.33;52.87
31121;BME280;17770;45.966;13.632;2023-10-13T04:34:45;100976.13;;;25.32;53.39
31121;BME280;17770;45.966;13.632;2023-10-13T04:37:11;100977.91;;;25.31;52.93
31121;BME280;17770;45.966;13.632;2023-10-13T04:39:56;100986.78;;;25.30;52.90
31121;BME280;17770;45.966;13.632;2023-10-13T04:42:40;100982.22;;;25.32;53.13
31121;BME280;17770;45.966;13.632;2023-10-13T04:45:30;100980.66;;;25.30;52.94
31121;BME280;17770;45.966;13.632;2023-10-13T04:47:57;100987.50;;;25.32;53.01
31121;BME280;17770;45.966;13.632;2023-10-13T04:50:24;100985.69;;;25.33;52.84
31121;BME280;17770;45.966;13.632;2023-10-13T04:53:00;100988.34;;;25.33;52.78
31121;BME280;17770;45.966;13.632;2023-10-13T04:55:39;100990.13;;;25.32;53.07
31121;BME280;17770;45.966;13.632;2023-10-13T04:58:25;100989.19;;;25.33;53.14
31121;BME280;17770;45.966;13.632;2023-10-13T05:01:09;100986.69;;;25.32;53.28
31121;BME280;17770;45.966;13.632;2023-10-13T05:04:10;101001.69;;;25.31;53.10
31121;BME280;17770;45.966;13.632;2023-10-13T05:07:04;101006.97;;;25.31;52.95
31121;BME280;17770;45.966;13.632;2023-10-13T05:09:48;101005.03;;;25.33;53.91
31121;BME280;17770;45.966;13.632;2023-10-13T05:12:32;101006.97;;;25.31;52.98
31121;BME280;17770;45.966;13.632;2023-10-13T05:15:18;101007.81;;;25.32;53.03
31121;BME280;17770;45.966;13.632;2023-10-13T05:18:02;101006.22;;;25.29;53.23
31121;BME280;17770;45.966;13.632;2023-10-13T05:20:47;101007.09;;;25.30;52.97
31121;BME280;17770;45.966;13.632;2023-10-13T05:23:31;100999.97;;;25.30;53.21
31121;BME280;17770;45.966;13.632;2023-10-13T05:26:16;101015.81;;;25.30;53.49
31121;BME280;17770;45.966;13.632;2023-10-13T05:29:00;101014.16;;;25.29;53.52
31121;BME280;17770;45.966;13.632;2023-10-13T05:31:45;101022.06;;;25.29;53.58
31121;BME280;17770;45.966;13.632;2023-10-13T05:34:29;101021.09;;;25.30;53.66
31121;BME280;17770;45.966;13.632;2023-10-13T05:37:13;101026.38;;;25.30;53.39
31121;BME280;17770;45.966;13.632;2023-10-13T05:39:58;101024.59;;;25.31;52.95
31121;BME280;17770;45.966;13.632;2023-10-13T05:42:42;101022.06;;;25.29;53.32
31121;BME280;17770;45.966;13.632;2023-10-13T05:45:26;101017.66;;;25.30;53.05
31121;BME280;17770;45.966;13.632;2023-10-13T05:48:10;101033.63;;;25.28;53.28
31121;BME280;17770;45.966;13.632;2023-10-13T05:50:44;101030.97;;;25.28;53.33
31121;BME280;17770;45.966;13.632;2023-10-13T05:53:36;101030.97;;;25.28;53.21
31121;BME280;17770;45.966;13.632;2023-10-13T05:56:21;101038.91;;;25.28;53.73
31121;BME280;17770;45.966;13.632;2023-10-13T05:59:05;101045.97;;;25.28;53.58
31121;BME280;17770;45.966;13.632;2023-10-13T06:01:51;101052.34;;;25.25;53.24
31121;BME280;17770;45.966;13.632;2023-10-13T06:04:36;101042.59;;;25.26;53.13
31121;BME280;17770;45.966;13.632;2023-10-13T06:07:20;101046.94;;;25.27;52.97
31121;BME280;17770;45.966;13.632;2023-10-13T06:10:04;101044.31;;;25.27;52.98
31121;BME280;17770;45.966;13.632;2023-10-13T06:12:49;101054.88;;;25.27;53.43
31121;BME280;17770;45.966;13.632;2023-10-13T06:15:35;101052.22;;;25.27;53.04
31121;BME280;17770;45.966;13.632;2023-10-13T06:18:20;101052.22;;;25.27;53.39
31121;BME280;17770;45.966;13.632;2023-10-13T06:21:04;101059.19;;;25.28;53.38
31121;BME280;17770;45.966;13.632;2023-10-13T06:23:48;101057.50;;;25.27;53.22
31121;BME280;17770;45.966;13.632;2023-10-13T06:26:32;101058.34;;;25.27;53.18
31121;BME280;17770;45.966;13.632;2023-10-13T06:29:17;101059.19;;;25.28;53.41
31121;BME280;17770;45.966;13.632;2023-10-13T06:31:45;101071.53;;;25.27;53.14
31121;BME280;17770;45.966;13.632;2023-10-13T06:34:11;101073.34;;;25.27;53.34
31121;BME280;17770;45.966;13.632;2023-10-13T06:36:41;101078.63;;;25.27;53.80
31121;BME280;17770;45.966;13.632;2023-10-13T06:39:07;101085.84;;;25.25;53.27
31121;BME280;17770;45.966;13.632;2023-10-13T06:42:01;101091.97;;;25.25;53.36
31121;BME280;17770;45.966;13.632;2023-10-13T06:44:28;101088.34;;;25.26;53.17
31121;BME280;17770;45.966;13.632;2023-10-13T06:46:58;101088.34;;;25.26;53.46
31121;BME280;17770;45.966;13.632;2023-10-13T06:49:25;101092.91;;;25.24;53.49
31121;BME280;17770;45.966;13.632;2023-10-13T06:51:51;101099.91;;;25.25;53.42
31121;BME280;17770;45.966;13.632;2023-10-13T06:54:17;101103.47;;;25.24;53.55
31121;BME280;17770;45.966;13.632;2023-10-13T06:56:46;101098.19;;;25.24;53.17
31121;BME280;17770;45.966;13.632;2023-10-13T06:59:12;101099.97;;;25.24;53.59
31121;BME280;17770;45.966;13.632;2023-10-13T07:01:40;101096.53;;;25.23;53.61
31121;BME280;17770;45.966;13.632;2023-10-13T07:04:07;101108.75;;;25.24;53.59
31121;BME280;17770;45.966;13.632;2023-10-13T07:06:42;101097.34;;;25.24;53.73
31121;BME280;17770;45.966;13.632;2023-10-13T07:09:10;101102.75;;;25.22;53.38
31121;BME280;17770;45.966;13.632;2023-10-13T07:11:53;101101.81;;;25.23;53.46
31121;BME280;17770;45.966;13.632;2023-10-13T07:14:19;101099.28;;;25.22;53.73
31121;BME280;17770;45.966;13.632;2023-10-13T07:16:56;101109.00;;;25.21;53.40
31121;BME280;17770;45.966;13.632;2023-10-13T07:19:24;101104.56;;;25.22;53.22
31121;BME280;17770;45.966;13.632;2023-10-13T07:21:56;101103.72;;;25.21;53.61
31121;BME280;17770;45.966;13.632;2023-10-13T07:24:26;101111.66;;;25.21;53.19
31121;BME280;17770;45.966;13.632;2023-10-13T07:26:57;101114.53;;;25.18;53.41
31121;BME280;17770;45.966;13.632;2023-10-13T07:29:28;101110.91;;;25.19;53.49
31121;BME280;17770;45.966;13.632;2023-10-13T07:31:54;101116.19;;;25.19;53.52
31121;BME280;17770;45.966;13.632;2023-10-13T07:34:20;101119.81;;;25.18;53.32
31121;BME280;17770;45.966;13.632;2023-10-13T07:36:53;101121.47;;;25.19;53.78
31121;BME280;17770;45.966;13.632;2023-10-13T07:39:26;101117.03;;;25.20;53.52
31121;BME280;17770;45.966;13.632;2023-10-13T07:41:53;101121.59;;;25.18;53.24
31121;BME280;17770;45.966;13.632;2023-10-13T07:44:21;101122.34;;;25.20;53.67
31121;BME280;17770;45.966;13.632;2023-10-13T07:46:51;101120.53;;;25.20;53.10
31121;BME280;17770;45.966;13.632;2023-10-13T07:49:31;101123.28;;;25.19;53.51
31121;BME280;17770;45.966;13.632;2023-10-13T07:52:00;101127.72;;;25.18;53.03
31121;BME280;17770;45.966;13.632;2023-10-13T07:54:43;101124.38;;;25.16;53.04
31121;BME280;17770;45.966;13.632;2023-10-13T07:57:09;101122.56;;;25.17;53.54
31121;BME280;17770;45.966;13.632;2023-10-13T07:59:35;101115.47;;;25.17;53.61
31121;BME280;17770;45.966;13.632;2023-10-13T08:02:12;101125.34;;;25.15;53.29
31121;BME280;17770;45.966;13.632;2023-10-13T08:04:39;101118.97;;;25.18;53.16
31121;BME280;17770;45.966;13.632;2023-10-13T08:07:05;101119.81;;;25.18;53.34
31121;BME280;17770;45.966;13.632;2023-10-13T08:09:40;101123.28;;;25.19;53.20
31121;BME280;17770;45.966;13.632;2023-10-13T08:12:07;101122.44;;;25.18;53.68
31121;BME280;17770;45.966;13.632;2023-10-13T08:14:38;101116.31;;;25.18;53.46
31121;BME280;17770;45.966;13.632;2023-10-13T08:17:07;101122.44;;;25.18;53.55
31121;BME280;17770;45.966;13.632;2023-10-13T08:19:35;101126.88;;;25.18;53.26
31121;BME280;17770;45.966;13.632;2023-10-13T08:22:13;101126.75;;;25.19;53.15
31121;BME280;17770;45.966;13.632;2023-10-13T08:24:42;101127.72;;;25.18;53.26
31121;BME280;17770;45.966;13.632;2023-10-13T08:27:08;101127.72;;;25.18;53.30
31121;BME280;17770;45.966;13.632;2023-10-13T08:29:52;101132.16;;;25.18;53.13
31121;BME280;17770;45.966;13.632;2023-10-13T08:32:24;101126.75;;;25.19;53.59
31121;BME280;17770;45.966;13.632;2023-10-13T08:34:53;101122.34;;;25.20;53.52
31121;BME280;17770;45.966;13.632;2023-10-13T08:37:20;101120.53;;;25.20;53.33
31121;BME280;17770;45.966;13.632;2023-10-13T08:39:49;101116.19;;;25.19;53.41
31121;BME280;17770;45.966;13.632;2023-10-13T08:42:44;101127.50;;;25.21;53.50
31121;BME280;17770;45.966;13.632;2023-10-13T08:47:54;101136.38;;;25.20;53.17
31121;BME280;17770;45.966;13.632;2023-10-13T08:50:34;101130.97;;;25.22;53.09
31121;BME280;17770;45.966;13.632;2023-10-13T08:53:22;101136.13;;;25.23;53.02
31121;BME280;17770;45.966;13.632;2023-10-13T08:56:00;101130.84;;;25.23;53.62
31121;BME280;17770;45.966;13.632;2023-10-13T08:58:33;101132.53;;;25.24;53.08
31121;BME280;17770;45.966;13.632;2023-10-13T09:01:28;101136.97;;;25.24;53.48
31121;BME280;17770;45.966;13.632;2023-10-13T09:04:13;101140.44;;;25.24;53.35
31121;BME280;17770;45.966;13.632;2023-10-13T09:07:00;101143.09;;;25.24;52.99
31121;BME280;17770;45.966;13.632;2023-10-13T09:09:43;101142.84;;;25.27;52.99
31121;BME280;17770;45.966;13.632;2023-10-13T09:14:39;101138.53;;;25.26;52.99
31121;BME280;17770;45.966;13.632;2023-10-13T09:17:10;101142.97;;;25.26;53.41
31121;BME280;17770;45.966;13.632;2023-10-13T09:22:23;101140.19;;;25.27;53.22
31121;BME280;17770;45.966;13.632;2023-10-13T09:25:02;101138.28;;;25.29;52.91
31121;BME280;17770;45.966;13.632;2023-10-13T09:27:31;101141.06;;;25.28;53.44
31121;BME280;17770;45.966;13.632;2023-10-13T09:29:59;101140.09;;;25.29;53.43
31121;BME280;17770;45.966;13.632;2023-10-13T09:32:35;101142.72;;;25.29;53.28
31121;BME280;17770;45.966;13.632;2023-10-13T09:35:17;101145.38;;;25.29;53.03
31121;BME280;17770;45.966;13.632;2023-10-13T09:37:44;101136.38;;;25.31;53.05
31121;BME280;17770;45.966;13.632;2023-10-13T09:40:14;101146.09;;;25.31;53.25
31121;BME280;17770;45.966;13.632;2023-10-13T09:42:51;101140.81;;;25.31;53.14
31121;BME280;17770;45.966;13.632;2023-10-13T09:45:17;101144.31;;;25.31;53.35
31121;BME280;17770;45.966;13.632;2023-10-13T09:47:44;101137.31;;;25.30;53.21
31121;BME280;17770;45.966;13.632;2023-10-13T09:50:13;101137.44;;;25.29;53.69
31121;BME280;17770;45.966;13.632;2023-10-13T09:52:49;101140.56;;;25.23;54.05
31121;BME280;17770;45.966;13.632;2023-10-13T09:57:49;101133.28;;;25.37;58.72
31121;BME280;17770;45.966;13.632;2023-10-13T10:00:23;101130.66;;;25.48;58.48
31121;BME280;17770;45.966;13.632;2023-10-13T10:03:07;101129.78;;;25.59;60.21
31121;BME280;17770;45.966;13.632;2023-10-13T10:05:59;101130.97;;;25.66;59.17
31121;BME280;17770;45.966;13.632;2023-10-13T10:08:43;101127.97;;;25.70;58.22
31121;BME280;17770;45.966;13.632;2023-10-13T10:13:52;101126.50;;;25.78;58.85
31121;BME280;17770;45.966;13.632;2023-10-13T10:16:29;101121.69;;;25.83;58.68
31121;BME280;17770;45.966;13.632;2023-10-13T10:19:01;101119.53;;;25.88;59.19
31121;BME280;17770;45.966;13.632;2023-10-13T10:21:35;101127.25;;;25.80;59.54
31121;BME280;17770;45.966;13.632;2023-10-13T10:24:01;101118.34;;;25.81;59.62
31121;BME280;17770;45.966;13.632;2023-10-13T10:26:33;101113.94;;;25.70;59.27
31121;BME280;17770;45.966;13.632;2023-10-13T10:28:59;101115.34;;;25.74;59.14
31121;BME280;17770;45.966;13.632;2023-10-13T10:31:33;101109.59;;;25.69;58.45
31121;BME280;17770;45.966;13.632;2023-10-13T10:34:14;101112.47;;;25.66;59.21
31121;BME280;17770;45.966;13.632;2023-10-13T10:36:54;101109.97;;;25.64;59.29
31121;BME280;17770;45.966;13.632;2023-10-13T10:39:20;101106.22;;;25.67;58.68
31121;BME280;17770;45.966;13.632;2023-10-13T10:41:47;101101.41;;;25.72;59.81
31121;BME280;17770;45.966;13.632;2023-10-13T10:44:19;101098.97;;;25.80;56.97
31121;BME280;17770;45.966;13.632;2023-10-13T10:47:12;101101.91;;;25.66;56.90
31121;BME280;17770;45.966;13.632;2023-10-13T10:49:48;101106.34;;;25.65;56.34
31121;BME280;17770;45.966;13.632;2023-10-13T10:52:16;101096.88;;;25.63;56.24
31121;BME280;17770;45.966;13.632;2023-10-13T10:54:44;101093.97;;;25.66;56.34
31121;BME280;17770;45.966;13.632;2023-10-13T10:57:14;101093.97;;;25.66;56.34
31121;BME280;17770;45.966;13.632;2023-10-13T10:59:44;101086.06;;;25.66;55.88
31121;BME280;17770;45.966;13.632;2023-10-13T11:02:10;101092.06;;;25.68;55.72
31121;BME280;17770;45.966;13.632;2023-10-13T11:04:41;101082.22;;;25.70;55.79
31121;BME280;17770;45.966;13.632;2023-10-13T11:07:23;101076.94;;;25.70;55.78
31121;BME280;17770;45.966;13.632;2023-10-13T11:09:49;101078.72;;;25.69;55.56
31121;BME280;17770;45.966;13.632;2023-10-13T11:12:19;101068.03;;;25.71;55.58
31121;BME280;17770;45.966;13.632;2023-10-13T11:15:04;101074.28;;;25.70;55.73
31121;BME280;17770;45.966;13.632;2023-10-13T11:17:48;101067.31;;;25.69;55.73
31121;BME280;17770;45.966;13.632;2023-10-13T11:20:17;101067.56;;;25.66;55.64
31121;BME280;17770;45.966;13.632;2023-10-13T11:22:46;101062.53;;;25.63;56.09
31121;BME280;17770;45.966;13.632;2023-10-13T11:25:23;101070.56;;;25.61;56.24
31121;BME280;17770;45.966;13.632;2023-10-13T11:27:49;101072.38;;;25.61;56.35
31121;BME280;17770;45.966;13.632;2023-10-13T11:30:15;101060.81;;;25.62;56.26
31121;BME280;17770;45.966;13.632;2023-10-13T11:33:17;101061.94;;;25.59;56.24
31121;BME280;17770;45.966;13.632;2023-10-13T11:35:49;101056.78;;;25.58;56.03
31121;BME280;17770;45.966;13.632;2023-10-13T11:38:22;101053.16;;;25.59;56.80
31121;BME280;17770;45.966;13.632;2023-10-13T11:41:01;101054.59;;;25.63;56.35
31121;BME280;17770;45.966;13.632;2023-10-13T11:43:44;101053.38;;;25.67;56.45
31121;BME280;17770;45.966;13.632;2023-10-13T11:49:05;101047.94;;;25.68;55.91
31121;BME280;17770;45.966;13.632;2023-10-13T11:51:34;101040.88;;;25.69;55.90
31121;BME280;17770;45.966;13.632;2023-10-13T11:54:03;101039.06;;;25.69;55.91
31121;BME280;17770;45.966;13.632;2023-10-13T11:56:29;101032.00;;;25.70;55.83
31121;BME280;17770;45.966;13.632;2023-10-13T11:58:55;101030.91;;;25.73;56.09
31121;BME280;17770;45.966;13.632;2023-10-13T12:01:27;101032.81;;;25.70;55.73
31121;BME280;17770;45.966;13.632;2023-10-13T12:04:11;101026.47;;;25.73;55.85
31121;BME280;17770;45.966;13.632;2023-10-13T12:06:56;101018.41;;;25.75;55.48
31121;BME280;17770;45.966;13.632;2023-10-13T12:09:37;101017.69;;;25.73;55.74
31121;BME280;17770;45.966;13.632;2023-10-13T12:12:26;101014.06;;;25.73;55.30
31121;BME280;17770;45.966;13.632;2023-10-13T12:14:53;101013.94;;;25.75;55.19
31121;BME280;17770;45.966;13.632;2023-10-13T12:17:23;100999.78;;;25.76;55.54
31121;BME280;17770;45.966;13.632;2023-10-13T12:20:00;101015.63;;;25.76;55.47
31121;BME280;17770;45.966;13.632;2023-10-13T12:22:30;101005.91;;;25.77;55.53
31121;BME280;17770;45.966;13.632;2023-10-13T12:25:05;101004.94;;;25.78;55.42
31121;BME280;17770;45.966;13.632;2023-10-13T12:27:45;101000.38;;;25.80;55.43
31121;BME280;17770;45.966;13.632;2023-10-13T12:30:21;101001.19;;;25.80;55.01
31121;BME280;17770;45.966;13.632;2023-10-13T12:33:14;100995.78;;;25.82;54.94
31121;BME280;17770;45.966;13.632;2023-10-13T12:35:50;101000.94;;;25.83;54.96
31121;BME280;17770;45.966;13.632;2023-10-13T12:38:38;101000.81;;;25.85;55.27
31121;BME280;17770;45.966;13.632;2023-10-13T12:41:13;101005.25;;;25.84;55.01
31121;BME280;17770;45.966;13.632;2023-10-13T12:43:57;100995.53;;;25.85;55.15
31121;BME280;17770;45.966;13.632;2023-10-13T12:46:41;101000.81;;;25.85;55.11
31121;BME280;17770;45.966;13.632;2023-10-13T12:49:26;100994.56;;;25.86;54.88
31121;BME280;17770;45.966;13.632;2023-10-13T12:52:10;100990.00;;;25.88;54.96
31121;BME280;17770;45.966;13.632;2023-10-13T12:54:48;100990.00;;;25.88;55.05
31121;BME280;17770;45.966;13.632;2023-10-13T12:57:26;100986.50;;;25.87;54.52
31121;BME280;17770;45.966;13.632;2023-10-13T12:59:52;100985.28;;;25.91;55.04
31121;BME280;17770;45.966;13.632;2023-10-13T13:02:22;100985.41;;;25.90;55.13
31121;BME280;17770;45.966;13.632;2023-10-13T13:04:54;100982.78;;;25.90;54.60
31121;BME280;17770;45.966;13.632;2023-10-13T13:07:27;100987.09;;;25.91;54.69
31121;BME280;17770;45.966;13.632;2023-10-13T13:09:56;100980.94;;;25.90;55.10
31121;BME280;17770;45.966;13.632;2023-10-13T13:12:25;100972.78;;;25.93;55.20
31121;BME280;17770;45.966;13.632;2023-10-13T13:14:54;100972.78;;;25.93;54.89
31121;BME280;17770;45.966;13.632;2023-10-13T13:17:21;100966.53;;;25.94;54.64
31121;BME280;17770;45.966;13.632;2023-10-13T13:19:46;100967.38;;;25.95;54.99
31121;BME280;17770;45.966;13.632;2023-10-13T13:22:12;100965.69;;;25.94;55.04
31121;BME280;17770;45.966;13.632;2023-10-13T13:24:42;100953.31;;;25.94;54.71
31121;BME280;17770;45.966;13.632;2023-10-13T13:27:14;100956.78;;;25.95;54.47
31121;BME280;17770;45.966;13.632;2023-10-13T13:29:43;100952.19;;;25.97;54.51